Main page
METAR-TAF:

METAR-TAF

Airports :

Antofagasta, Chile

Andrés Sabella Gálvez International Airport

latitude: 23-26S, longitude: 070-26W, elevation: 135 m

Current weather observation

The report was made 1 hour and 0 minutes ago, at 16:00 UTC
Wind 11 kt from the South/Southwest
Temperature 21°C
Humidity 64%
Pressure 1014 hPa
Visibility 10 km or more
no clouds below 1500 m and no cumulonimbus

METAR: SCFA 261600Z 21011KT CAVOK 21/14 Q1014 NOSIG

Time: 14:00 (17:00 UTC)

Forecast

The report was made 6 hours and 30 minutes ago, at 10:30 UTC
Forecast valid from 26 at 12 UTC to 27 at 12 UTC
Wind 5 kt from the South/Southeast
Visibility 10 km or more
no clouds below 1500 m and no cumulonimbus
Becoming
from 26 at 16 UTC to 26 at 18 UTC
Wind 12 kt from the South
Few clouds at a height of 2000 ft
Becoming
from 27 at 06 UTC to 27 at 08 UTC
Wind 3 kt from the East

TAF: SCFA 261030Z 2612/2712 16005KT CAVOK TX22/2617Z TN16/2708Z BECMG 2616/2618 18012KT FEW020 BECMG 2706/2708 10003KT

Weather observations and forecasts of more than 4000 airports (METAR and TAF reports).

The available stations are represented by yellow and red dots on the map.

Hover mouse over dot to see the name of the station.

Then click to see weather observations and forecasts.

To change the map : click on the green buttons with a black cross to zoom in, on the green button with a dash to zoom out, or on the green arrows for adjacent maps.


METAR-TAF: